Time;durP1;ratioP1;P1;durP2;ratioP2;P2;SDS_P1;SDS_P2;PMS_P1;PMS_P2;Temp;Humidity;BMP_temperature;BMP_pressure;BME280_temperature;BME280_humidity;BME280_pressure;Samples;Min_cycle;Max_cycle;Signal;HPM_P1;HPM_P2
2020/12/17 00:00:26;;;;;;;0.82;0.73;;;9.50;80.20;;;;;;5102675;28;20039;-42
2020/12/17 00:02:52;;;;;;;0.80;0.80;;;9.50;80.10;;;;;;5073003;28;20497;-42
2020/12/17 00:05:19;;;;;;;0.73;0.73;;;9.50;80.20;;;;;;5082479;28;20088;-42
2020/12/17 00:07:45;;;;;;;0.57;0.57;;;9.40;80.10;;;;;;5082166;28;20047;-42
2020/12/17 00:10:12;;;;;;;0.70;0.70;;;9.50;80.20;;;;;;5082466;28;20483;-43
2020/12/17 00:12:40;;;;;;;0.80;0.70;;;9.40;80.10;;;;;;5082362;28;20051;-43
2020/12/17 00:15:07;;;;;;;;;;;9.50;80.20;;;;;;5082736;28;20089;-42
2020/12/17 00:17:38;;;;;;;0.68;0.68;;;9.40;80.10;;;;;;5082374;28;19913;-42
2020/12/17 00:20:05;;;;;;;0.77;0.70;;;9.40;80.10;;;;;;5095983;28;20078;-42
2020/12/17 00:22:35;;;;;;;1.00;0.70;;;9.50;80.20;;;;;;5102402;28;20031;-42
2020/12/17 00:25:02;;;;;;;0.80;0.70;;;9.40;80.10;;;;;;5102367;28;20079;-43
2020/12/17 00:27:28;;;;;;;0.82;0.80;;;9.40;80.10;;;;;;5102513;28;20024;-44
2020/12/17 00:29:55;;;;;;;1.40;0.80;;;9.40;80.10;;;;;;5102398;28;20047;-44
2020/12/17 00:32:21;;;;;;;0.82;0.60;;;9.50;80.20;;;;;;5095333;28;20207;-43
2020/12/17 00:34:47;;;;;;;0.85;0.70;;;9.40;80.10;;;;;;5084055;28;20136;-42
2020/12/17 00:37:13;;;;;;;0.95;0.70;;;9.40;80.10;;;;;;5099172;28;20027;-42
2020/12/17 00:39:39;;;;;;;1.52;0.70;;;9.40;80.10;;;;;;5106587;28;20054;-42
2020/12/17 00:42:05;;;;;;;1.30;0.70;;;9.40;80.10;;;;;;5106557;28;20031;-42
2020/12/17 00:44:32;;;;;;;0.85;0.85;;;9.40;80.10;;;;;;5106338;28;20020;-42
2020/12/17 00:46:58;;;;;;;0.73;0.68;;;9.40;80.20;;;;;;5088171;28;20031;-43
2020/12/17 00:49:24;;;;;;;1.40;0.70;;;9.40;80.10;;;;;;5106064;28;20061;-43
2020/12/17 00:51:50;;;;;;;0.60;0.60;;;9.40;80.10;;;;;;5106241;28;20768;-42
2020/12/17 00:54:17;;;;;;;0.90;0.65;;;9.40;80.10;;;;;;5087728;28;20020;-44
2020/12/17 00:56:48;;;;;;;0.60;0.60;;;9.40;80.10;;;;;;5106278;28;20032;-42
2020/12/17 00:59:15;;;;;;;1.73;0.80;;;9.40;80.10;;;;;;5106234;28;20024;-42
2020/12/17 01:01:41;;;;;;;1.00;0.93;;;9.40;80.10;;;;;;5106216;28;20055;-43
2020/12/17 01:04:07;;;;;;;0.82;0.60;;;9.40;80.20;;;;;;5105818;28;20655;-43
2020/12/17 01:06:33;;;;;;;1.13;0.70;;;9.40;80.10;;;;;;5098283;28;20047;-42
2020/12/17 01:08:59;;;;;;;0.70;0.70;;;9.40;80.10;;;;;;5104097;28;20604;-43
2020/12/17 01:11:29;;;;;;;1.05;0.70;;;9.40;80.10;;;;;;5105971;28;20028;-44
2020/12/17 01:13:55;;;;;;;0.60;0.60;;;9.40;80.10;;;;;;5105698;28;20515;-42
2020/12/17 01:16:21;;;;;;;1.02;0.63;;;9.40;80.20;;;;;;5105867;28;20043;-43
2020/12/17 01:18:48;;;;;;;0.57;0.57;;;9.40;80.70;;;;;;5119154;28;20745;-43
2020/12/17 01:21:14;;;;;;;0.68;0.68;;;9.40;80.20;;;;;;5126060;28;20015;-43
2020/12/17 01:23:40;;;;;;;1.27;0.80;;;9.40;80.20;;;;;;5126328;28;20023;-43
2020/12/17 01:26:10;;;;;;;0.68;0.60;;;9.40;80.10;;;;;;5126017;28;20043;-43
2020/12/17 01:28:37;;;;;;;0.98;0.70;;;9.40;80.20;;;;;;5125933;28;20039;-43
2020/12/17 01:31:09;;;;;;;0.68;0.68;;;9.40;80.20;;;;;;5126034;28;20032;-42
2020/12/17 01:33:35;;;;;;;0.75;0.63;;;9.40;80.20;;;;;;5108180;28;20093;-42
2020/12/17 01:36:04;;;;;;;1.15;0.63;;;9.40;80.20;;;;;;5108549;28;20161;-43
2020/12/17 01:38:30;;;;;;;1.20;0.70;;;9.40;80.20;;;;;;5125972;28;20031;-42
2020/12/17 01:40:56;;;;;;;0.90;0.70;;;9.40;80.20;;;;;;5123132;27;20027;-42
2020/12/17 01:43:22;;;;;;;0.85;0.70;;;9.40;80.20;;;;;;5125843;28;20024;-42
2020/12/17 01:45:48;;;;;;;1.80;0.68;;;9.40;80.20;;;;;;5127834;27;20019;-43
2020/12/17 01:48:17;;;;;;;0.80;0.80;;;9.40;80.20;;;;;;5125700;28;20055;-42
2020/12/17 01:50:44;;;;;;;1.25;0.60;;;9.40;80.20;;;;;;5143323;27;20015;-43
2020/12/17 01:53:11;;;;;;;0.77;0.65;;;9.40;80.20;;;;;;5146104;27;20044;-43
2020/12/17 01:55:38;;;;;;;0.65;0.65;;;9.40;80.20;;;;;;5129573;27;20035;-43
2020/12/17 01:58:05;;;;;;;0.80;0.73;;;9.40;80.30;;;;;;5125539;28;20168;-42
2020/12/17 02:00:35;;;;;;;1.85;0.90;;;9.40;80.90;;;;;;5125320;28;20027;-42
2020/12/17 02:03:02;;;;;;;1.25;0.77;;;9.40;80.20;;;;;;5125503;28;20073;-43
2020/12/17 02:05:29;;;;;;;0.70;0.70;;;9.40;80.20;;;;;;5125268;28;20040;-42
2020/12/17 02:07:57;;;;;;;1.57;0.70;;;9.40;80.20;;;;;;5095944;28;20047;-42
2020/12/17 02:10:24;;;;;;;0.57;0.57;;;9.40;80.20;;;;;;5125468;28;20042;-42
2020/12/17 02:12:50;;;;;;;0.80;0.80;;;9.40;80.20;;;;;;5107023;28;20032;-42
2020/12/17 02:15:17;;;;;;;0.70;0.70;;;9.40;80.30;;;;;;5106685;28;20046;-42
2020/12/17 02:17:43;;;;;;;0.90;0.70;;;9.40;80.20;;;;;;5120884;28;20039;-42
2020/12/17 02:20:09;;;;;;;0.60;0.60;;;9.40;80.30;;;;;;5104516;28;20036;-42
2020/12/17 02:22:36;;;;;;;1.60;0.80;;;9.40;80.30;;;;;;5104737;28;20051;-42
2020/12/17 02:25:04;;;;;;;0.95;0.75;;;9.40;80.30;;;;;;5104418;28;20701;-43
2020/12/17 02:27:30;;;;;;;1.08;0.90;;;9.30;80.20;;;;;;5103157;28;20182;-43
2020/12/17 02:29:57;;;;;;;0.90;0.70;;;9.40;80.30;;;;;;5102559;28;20123;-42
2020/12/17 02:32:23;;;;;;;0.82;0.70;;;9.30;80.20;;;;;;5104368;28;20024;-42
2020/12/17 02:34:49;;;;;;;0.80;0.70;;;9.40;80.30;;;;;;5104375;28;20028;-42
2020/12/17 02:37:15;;;;;;;1.42;0.70;;;9.30;80.20;;;;;;5103963;28;20363;-42
2020/12/17 02:39:41;;;;;;;0.70;0.70;;;9.40;80.30;;;;;;5104430;28;20067;-42
2020/12/17 02:42:08;;;;;;;1.00;0.80;;;9.40;80.30;;;;;;5104359;28;20024;-43
2020/12/17 02:44:34;;;;;;;1.05;0.90;;;9.30;80.30;;;;;;5104215;28;20036;-43
2020/12/17 02:47:00;;;;;;;1.10;0.82;;;9.30;80.20;;;;;;5103835;28;20027;-42
2020/12/17 02:49:26;;;;;;;1.13;0.73;;;9.30;80.20;;;;;;5103337;28;20046;-42
2020/12/17 02:51:52;;;;;;;0.55;0.55;;;9.40;80.30;;;;;;5104012;28;20024;-43
2020/12/17 02:54:18;;;;;;;0.80;0.70;;;9.30;80.20;;;;;;5104023;28;20570;-42
2020/12/17 02:56:45;;;;;;;0.95;0.82;;;9.30;80.20;;;;;;5102953;28;20024;-42
2020/12/17 02:59:11;;;;;;;1.00;0.77;;;9.30;80.20;;;;;;5103859;28;20420;-42
2020/12/17 03:01:37;;;;;;;0.90;0.70;;;9.30;80.30;;;;;;5103952;28;20020;-43
2020/12/17 03:04:03;;;;;;;0.80;0.80;;;9.30;80.20;;;;;;5104036;28;20115;-43
2020/12/17 03:06:29;;;;;;;0.80;0.80;;;9.30;80.30;;;;;;5096632;28;20028;-44
2020/12/17 03:08:56;;;;;;;0.95;0.82;;;9.30;80.30;;;;;;5083328;28;20040;-44
2020/12/17 03:11:22;;;;;;;0.70;0.70;;;9.30;80.30;;;;;;5083493;28;20020;-42
2020/12/17 03:13:48;;;;;;;1.47;0.80;;;9.30;80.30;;;;;;5083440;28;20043;-42
2020/12/17 03:16:14;;;;;;;0.98;0.80;;;9.30;80.30;;;;;;5083512;28;20021;-44
2020/12/17 03:18:41;;;;;;;0.93;0.73;;;9.30;80.30;;;;;;5083298;28;20080;-44
2020/12/17 03:21:07;;;;;;;0.93;0.88;;;9.30;80.30;;;;;;5103765;28;20024;-42
2020/12/17 03:23:33;;;;;;;0.80;0.80;;;9.30;80.30;;;;;;5085224;28;20136;-42
2020/12/17 03:25:59;;;;;;;0.90;0.70;;;9.30;80.30;;;;;;5103682;28;20028;-42
2020/12/17 03:28:25;;;;;;;0.63;0.60;;;9.30;80.30;;;;;;5103216;28;20100;-42
2020/12/17 03:30:51;;;;;;;2.25;0.77;;;9.30;81.00;;;;;;5103330;28;20016;-42
2020/12/17 03:33:17;;;;;;;0.98;0.70;;;9.30;80.40;;;;;;5088502;28;20033;-42
2020/12/17 03:35:44;;;;;;;1.20;0.80;;;9.30;80.30;;;;;;5083950;28;20066;-42
2020/12/17 03:38:10;;;;;;;0.90;0.90;;;9.30;80.30;;;;;;5102913;28;20032;-43
2020/12/17 03:40:36;;;;;;;1.05;0.88;;;9.30;80.30;;;;;;5103394;28;20596;-42
2020/12/17 03:43:02;;;;;;;1.13;0.80;;;9.30;80.30;;;;;;5103059;28;20087;-42
2020/12/17 03:45:28;;;;;;;0.60;0.50;;;9.30;80.30;;;;;;5103427;28;20138;-43
2020/12/17 03:47:55;;;;;;;0.60;0.60;;;9.30;80.30;;;;;;5102673;28;20020;-43
2020/12/17 03:50:21;;;;;;;0.80;0.80;;;9.30;80.30;;;;;;5101369;28;20038;-42
2020/12/17 03:52:47;;;;;;;2.15;1.05;;;9.30;80.40;;;;;;5103209;28;20028;-42
2020/12/17 03:55:13;;;;;;;0.82;0.60;;;9.30;80.30;;;;;;5103165;28;20392;-43
2020/12/17 03:57:39;;;;;;;1.35;0.75;;;9.30;80.40;;;;;;5102828;28;20035;-43
2020/12/17 04:00:06;;;;;;;0.75;0.60;;;9.30;80.30;;;;;;5103237;28;20028;-43
2020/12/17 04:02:32;;;;;;;0.95;0.73;;;9.30;80.40;;;;;;5103083;28;20027;-43
2020/12/17 04:04:58;;;;;;;0.93;0.60;;;9.30;80.30;;;;;;5103039;28;20036;-43
2020/12/17 04:07:24;;;;;;;0.82;0.82;;;9.30;80.30;;;;;;5087927;28;20119;-43
2020/12/17 04:09:50;;;;;;;1.38;0.65;;;9.30;80.40;;;;;;5082231;28;20041;-43
2020/12/17 04:12:16;;;;;;;1.10;1.00;;;9.30;80.30;;;;;;5082595;28;20031;-43
2020/12/17 04:14:42;;;;;;;1.05;0.80;;;9.30;80.40;;;;;;5082781;28;20060;-43
2020/12/17 04:17:09;;;;;;;0.93;0.82;;;9.30;80.40;;;;;;5082645;28;20594;-43
2020/12/17 04:19:35;;;;;;;1.42;0.90;;;9.30;80.30;;;;;;5090064;28;20044;-44
2020/12/17 04:22:01;;;;;;;1.30;0.77;;;9.30;80.30;;;;;;5102744;28;20036;-43
2020/12/17 04:24:29;;;;;;;0.98;0.85;;;9.30;80.40;;;;;;5102563;28;20051;-42
2020/12/17 04:26:56;;;;;;;1.27;0.80;;;9.30;80.40;;;;;;5082550;28;20579;-43
2020/12/17 04:29:22;;;;;;;1.42;0.73;;;9.30;80.70;;;;;;5064044;28;20108;-43
2020/12/17 04:31:48;;;;;;;1.58;0.80;;;9.30;80.40;;;;;;5067153;28;20029;-43
2020/12/17 04:34:14;;;;;;;1.17;0.77;;;9.30;80.40;;;;;;5102700;28;20083;-43
2020/12/17 04:36:40;;;;;;;2.42;1.00;;;9.30;80.40;;;;;;5093774;28;20032;-43
2020/12/17 04:39:07;;;;;;;0.95;0.70;;;9.30;80.40;;;;;;5082392;28;20035;-44
2020/12/17 04:41:33;;;;;;;1.60;0.70;;;9.30;80.40;;;;;;5082367;28;20033;-46
2020/12/17 04:43:59;;;;;;;1.95;0.93;;;9.30;80.40;;;;;;5100297;28;20028;-43
2020/12/17 04:46:26;;;;;;;0.95;0.90;;;9.30;80.50;;;;;;5102591;28;20024;-43
2020/12/17 04:48:53;;;;;;;0.80;0.80;;;9.30;80.50;;;;;;5084010;28;20056;-43
2020/12/17 04:51:20;;;;;;;1.00;0.90;;;9.30;80.40;;;;;;5102625;28;20032;-43
2020/12/17 04:53:47;;;;;;;0.80;0.70;;;9.30;80.40;;;;;;5102414;28;20036;-43
2020/12/17 04:56:18;;;;;;;1.95;0.85;;;9.30;80.40;;;;;;5102646;28;20024;-44
2020/12/17 04:58:48;;;;;;;1.00;0.90;;;9.30;80.50;;;;;;5102247;28;20035;-44
2020/12/17 05:01:18;;;;;;;1.15;0.73;;;9.20;80.40;;;;;;5102411;28;20028;-43
2020/12/17 05:03:46;;;;;;;1.05;0.90;;;9.30;80.50;;;;;;5083953;28;20027;-43
2020/12/17 05:06:21;;;;;;;1.05;0.80;;;9.30;80.50;;;;;;5097544;28;20476;-43
2020/12/17 05:08:47;;;;;;;1.30;1.10;;;9.20;80.50;;;;;;5064853;28;20047;-43
2020/12/17 05:11:14;;;;;;;1.00;0.85;;;9.30;80.50;;;;;;5082398;28;20020;-44
2020/12/17 05:13:40;;;;;;;1.00;0.90;;;9.20;80.40;;;;;;5081047;28;20030;-42
2020/12/17 05:16:06;;;;;;;1.30;0.98;;;9.20;80.40;;;;;;5074903;28;20063;-44
2020/12/17 05:18:33;;;;;;;0.70;0.70;;;9.20;80.50;;;;;;5082024;28;20068;-43
2020/12/17 05:21:00;;;;;;;1.42;1.00;;;9.20;80.40;;;;;;5103481;28;20028;-43
2020/12/17 05:23:27;;;;;;;1.80;1.13;;;9.20;80.40;;;;;;5087602;28;20034;-43
2020/12/17 05:25:53;;;;;;;1.25;0.90;;;9.30;80.40;;;;;;5067480;28;20036;-44
2020/12/17 05:28:19;;;;;;;1.38;0.95;;;9.20;80.40;;;;;;5084173;28;20050;-43
2020/12/17 05:30:45;;;;;;;1.20;0.93;;;9.20;80.40;;;;;;5085277;28;20029;-43
2020/12/17 05:33:11;;;;;;;1.20;1.10;;;9.20;80.40;;;;;;5098853;28;20077;-43
2020/12/17 05:35:39;;;;;;;1.90;0.98;;;9.20;80.40;;;;;;5105761;28;20024;-43
2020/12/17 05:38:05;;;;;;;;;;;9.20;80.40;;;;;;5085622;28;20048;-43
2020/12/17 05:40:41;;;;;;;1.38;1.13;;;9.20;80.40;;;;;;5085319;28;20438;-43
2020/12/17 05:43:07;;;;;;;1.23;0.98;;;9.20;80.30;;;;;;5085869;28;20040;-42
2020/12/17 05:45:33;;;;;;;1.30;1.10;;;9.20;80.40;;;;;;5087346;28;20039;-43
2020/12/17 05:48:12;;;;;;;0.93;0.85;;;9.20;81.10;;;;;;5105136;28;20555;-43
2020/12/17 05:50:55;;;;;;;0.80;0.80;;;9.20;80.40;;;;;;5105095;28;20040;-43
2020/12/17 05:53:28;;;;;;;2.80;1.23;;;9.20;80.40;;;;;;5088174;28;20026;-43
2020/12/17 05:56:02;;;;;;;1.40;0.93;;;9.20;80.40;;;;;;5105460;28;20116;-43
2020/12/17 05:58:41;;;;;;;1.20;1.00;;;9.20;80.40;;;;;;5104888;28;20036;-43
2020/12/17 06:01:09;;;;;;;1.92;0.93;;;9.20;80.40;;;;;;5104762;28;20036;-43
2020/12/17 06:03:35;;;;;;;2.90;1.38;;;9.20;80.40;;;;;;5087537;28;20021;-42
2020/12/17 06:06:01;;;;;;;0.80;0.80;;;9.20;80.50;;;;;;5086904;28;20039;-43
2020/12/17 06:08:40;;;;;;;1.05;0.90;;;9.20;80.50;;;;;;5070258;28;20046;-43
2020/12/17 06:11:11;;;;;;;1.13;1.02;;;9.20;80.50;;;;;;5088428;28;20099;-43
2020/12/17 06:13:39;;;;;;;2.55;1.02;;;9.20;80.50;;;;;;5104950;28;20058;-43
2020/12/17 06:16:06;;;;;;;0.90;0.90;;;9.20;80.50;;;;;;5104976;28;20103;-43
2020/12/17 06:18:47;;;;;;;;;;;9.20;80.50;;;;;;5116560;28;20051;-43
2020/12/17 06:21:13;;;;;;;1.13;0.93;;;9.20;80.50;;;;;;5104727;28;19957;-44
2020/12/17 06:23:39;;;;;;;1.30;1.20;;;9.20;80.50;;;;;;5090028;27;20034;-43
2020/12/17 06:26:08;;;;;;;1.60;1.10;;;9.20;80.50;;;;;;5143221;27;20026;-43
2020/12/17 06:28:46;;;;;;;1.20;1.02;;;9.20;80.50;;;;;;5145646;27;20019;-43
2020/12/17 06:31:18;;;;;;;1.05;0.90;;;9.20;80.50;;;;;;5145392;27;20027;-43
2020/12/17 06:33:45;;;;;;;1.13;1.02;;;9.20;80.50;;;;;;5108054;28;20066;-43
2020/12/17 06:36:40;;;;;;;1.33;1.02;;;9.20;80.60;;;;;;5120046;28;20035;-42
2020/12/17 06:39:07;;;;;;;1.13;1.02;;;9.20;80.50;;;;;;5118849;28;20035;-43
2020/12/17 06:41:33;;;;;;;1.93;0.90;;;9.20;80.50;;;;;;5086147;28;20038;-43
2020/12/17 06:43:59;;;;;;;1.33;1.20;;;9.20;80.50;;;;;;5117881;28;20267;-43
2020/12/17 06:46:34;;;;;;;1.55;1.17;;;9.20;80.50;;;;;;5131848;27;20023;-43
2020/12/17 06:49:02;;;;;;;0.80;0.77;;;9.20;80.60;;;;;;5142220;27;20043;-43
2020/12/17 06:51:35;;;;;;;1.30;1.20;;;9.20;80.60;;;;;;5124488;28;20059;-43
2020/12/17 06:54:06;;;;;;;1.50;1.23;;;9.20;80.60;;;;;;5124658;28;20030;-44
2020/12/17 06:56:32;;;;;;;1.20;1.10;;;9.20;80.60;;;;;;5124673;28;20145;-43
2020/12/17 06:59:28;;;;;;;1.13;1.03;;;9.20;81.30;;;;;;5124484;28;20102;-43
2020/12/17 07:01:54;;;;;;;1.30;1.20;;;9.20;80.60;;;;;;5103031;28;20071;-43
2020/12/17 07:04:37;;;;;;;1.20;0.95;;;9.20;80.60;;;;;;5103930;28;20019;-43
2020/12/17 07:07:13;;;;;;;2.03;1.00;;;9.10;80.60;;;;;;5115498;28;20521;-43
2020/12/17 07:09:39;;;;;;;1.10;1.00;;;9.20;80.60;;;;;;5124269;28;20050;-44
2020/12/17 07:12:05;;;;;;;1.10;1.00;;;9.20;80.70;;;;;;5124130;28;20016;-43
2020/12/17 07:14:33;;;;;;;1.52;1.17;;;9.10;80.60;;;;;;5124093;28;20030;-48
2020/12/17 07:17:03;;;;;;;1.20;1.10;;;9.20;80.60;;;;;;5123949;28;20023;-43
2020/12/17 07:19:44;;;;;;;1.20;1.10;;;9.20;80.70;;;;;;5106618;28;20106;-43
2020/12/17 07:22:15;;;;;;;1.35;1.13;;;9.20;80.70;;;;;;5068381;28;20036;-44
2020/12/17 07:24:48;;;;;;;1.20;1.10;;;9.20;80.70;;;;;;5103674;28;20764;-43
2020/12/17 07:27:24;;;;;;;1.27;1.10;;;9.20;80.70;;;;;;5103743;28;20146;-43
2020/12/17 07:30:06;;;;;;;1.30;1.20;;;9.10;80.60;;;;;;5103421;28;20032;-43
2020/12/17 07:32:44;;;;;;;1.48;1.38;;;9.10;80.60;;;;;;5102424;28;20110;-43
2020/12/17 07:35:11;;;;;;;1.35;1.25;;;9.20;80.70;;;;;;5103381;28;20742;-43
2020/12/17 07:37:57;;;;;;;1.52;1.30;;;9.20;80.70;;;;;;5103299;28;20039;-43
2020/12/17 07:40:34;;;;;;;1.48;1.25;;;9.10;80.60;;;;;;5103419;28;20024;-43
2020/12/17 07:43:02;;;;;;;1.38;1.27;;;9.10;80.70;;;;;;5102980;28;20028;-43
2020/12/17 07:45:48;;;;;;;1.45;1.15;;;9.10;80.70;;;;;;5102937;28;20020;-43
2020/12/17 07:48:33;;;;;;;1.35;1.20;;;9.10;80.70;;;;;;5103301;28;20024;-43
2020/12/17 07:51:00;;;;;;;1.30;1.20;;;9.10;80.60;;;;;;5102807;28;20112;-43
2020/12/17 07:53:26;;;;;;;1.30;1.17;;;9.10;80.70;;;;;;5102999;28;20024;-43
2020/12/17 07:55:53;;;;;;;2.08;1.58;;;9.10;80.70;;;;;;5085086;28;20507;-43
2020/12/17 07:58:19;;;;;;;1.37;1.10;;;9.10;80.70;;;;;;5103121;28;20081;-43
2020/12/17 08:00:45;;;;;;;1.77;1.40;;;9.10;80.80;;;;;;5103058;28;20336;-43
2020/12/17 08:03:11;;;;;;;1.70;1.50;;;9.10;80.60;;;;;;5088393;28;20046;-43
2020/12/17 08:05:38;;;;;;;1.30;1.20;;;9.20;80.70;;;;;;5082971;28;20057;-43
2020/12/17 08:08:04;;;;;;;2.13;1.40;;;9.10;80.60;;;;;;5082570;28;20024;-43
2020/12/17 08:10:37;;;;;;;1.48;1.23;;;9.20;80.70;;;;;;5082796;28;20041;-43
2020/12/17 08:13:03;;;;;;;1.60;1.50;;;9.10;80.70;;;;;;5082250;28;20028;-44
2020/12/17 08:15:29;;;;;;;1.30;1.08;;;9.10;80.70;;;;;;5082565;28;20024;-43
2020/12/17 08:17:56;;;;;;;1.45;1.35;;;9.10;80.70;;;;;;5082470;28;20041;-43
2020/12/17 08:20:25;;;;;;;1.15;1.05;;;9.10;80.60;;;;;;5096855;28;20092;-42
2020/12/17 08:22:54;;;;;;;1.48;1.30;;;9.10;80.70;;;;;;5102468;28;20039;-43
2020/12/17 08:25:21;;;;;;;1.23;1.13;;;9.10;80.70;;;;;;5102280;28;20024;-43
2020/12/17 08:27:47;;;;;;;1.90;1.70;;;9.10;80.70;;;;;;5103011;28;20039;-44
2020/12/17 08:30:14;;;;;;;2.00;1.83;;;9.10;80.70;;;;;;5102875;28;20038;-43
2020/12/17 08:32:53;;;;;;;1.70;1.60;;;9.10;80.80;;;;;;5102347;28;20055;-43
2020/12/17 08:35:23;;;;;;;1.50;1.40;;;9.10;80.70;;;;;;5102674;28;20109;-43
2020/12/17 08:37:51;;;;;;;1.70;1.60;;;9.10;80.70;;;;;;5084128;28;20078;-43
2020/12/17 08:40:22;;;;;;;1.58;1.48;;;9.10;80.80;;;;;;5082406;28;20040;-44
2020/12/17 08:42:49;;;;;;;1.50;1.40;;;9.10;80.70;;;;;;5082229;28;20116;-43
2020/12/17 08:45:15;;;;;;;1.92;1.65;;;9.10;80.70;;;;;;5081164;28;20040;-43
2020/12/17 08:47:42;;;;;;;2.05;1.52;;;9.10;80.70;;;;;;5080956;28;20039;-43
2020/12/17 08:50:08;;;;;;;2.53;1.40;;;9.10;80.70;;;;;;5109934;28;20028;-43
2020/12/17 08:52:35;;;;;;;1.73;1.63;;;9.10;80.80;;;;;;5102201;28;20107;-45
2020/12/17 08:55:08;;;;;;;1.77;1.60;;;9.10;80.70;;;;;;5103013;28;20030;-43
2020/12/17 08:57:34;;;;;;;1.95;1.73;;;9.10;80.80;;;;;;5086129;28;20029;-43
2020/12/17 09:00:00;;;;;;;2.63;2.00;;;9.00;80.70;;;;;;5085684;28;20060;-43
2020/12/17 09:02:27;;;;;;;2.28;2.08;;;9.10;80.80;;;;;;5092598;28;20031;-43
2020/12/17 09:05:03;;;;;;;1.95;1.77;;;9.10;80.70;;;;;;5106533;28;20094;-43
2020/12/17 09:07:30;;;;;;;2.45;2.08;;;9.10;80.70;;;;;;5105999;28;20673;-43
2020/12/17 09:10:09;;;;;;;2.00;1.80;;;9.10;80.80;;;;;;5106005;28;20816;-43
2020/12/17 09:12:36;;;;;;;1.83;1.73;;;9.00;80.70;;;;;;5105960;28;20021;-43
2020/12/17 09:15:09;;;;;;;1.92;1.83;;;9.00;80.70;;;;;;5106084;28;20159;-43
2020/12/17 09:17:35;;;;;;;2.13;1.92;;;9.00;80.70;;;;;;5105682;28;20020;-45
2020/12/17 09:20:02;;;;;;;2.20;1.80;;;9.00;80.70;;;;;;5105852;28;20031;-43
2020/12/17 09:22:34;;;;;;;2.00;1.88;;;9.00;80.70;;;;;;5087135;28;20032;-44
2020/12/17 09:25:01;;;;;;;2.10;1.90;;;9.10;80.70;;;;;;5105736;28;20074;-43
2020/12/17 09:27:37;;;;;;;2.10;1.90;;;9.00;80.70;;;;;;5105780;28;20024;-43
2020/12/17 09:30:18;;;;;;;2.75;2.00;;;9.00;80.70;;;;;;5087420;28;20096;-43
2020/12/17 09:32:55;;;;;;;2.10;1.90;;;9.00;80.70;;;;;;5105510;28;20029;-43
2020/12/17 09:35:22;;;;;;;2.40;1.70;;;9.00;80.70;;;;;;5105631;28;20032;-43
2020/12/17 09:38:00;;;;;;;;;;;9.00;80.70;;;;;;5087627;28;20044;-43
2020/12/17 09:40:27;;;;;;;2.00;1.80;;;9.00;80.70;;;;;;5093521;28;20524;-44
2020/12/17 09:43:05;;;;;;;2.33;2.00;;;9.00;80.70;;;;;;5105200;28;20061;-43
2020/12/17 09:45:38;;;;;;;2.50;2.30;;;9.00;80.70;;;;;;5105004;28;20031;-43
2020/12/17 09:48:33;;;;;;;2.30;1.92;;;9.00;80.70;;;;;;5105552;28;20024;-43
2020/12/17 09:51:04;;;;;;;2.20;2.00;;;9.00;80.70;;;;;;5067896;28;20043;-43
2020/12/17 09:53:32;;;;;;;2.72;2.22;;;9.00;80.70;;;;;;5084595;28;20036;-43
2020/12/17 09:55:58;;;;;;;2.42;2.22;;;9.00;80.70;;;;;;5085655;28;20047;-43
2020/12/17 09:58:24;;;;;;;2.80;2.17;;;9.00;80.70;;;;;;5105040;28;20092;-43
2020/12/17 10:00:51;;;;;;;2.60;2.40;;;9.00;80.70;;;;;;5105046;28;20016;-43
2020/12/17 10:03:17;;;;;;;2.45;2.25;;;9.00;80.70;;;;;;5089947;28;20031;-43
2020/12/17 10:05:43;;;;;;;2.70;2.30;;;9.00;80.70;;;;;;5084927;28;20420;-43
2020/12/17 10:08:09;;;;;;;2.45;2.03;;;9.00;81.40;;;;;;5104670;28;20064;-43
2020/12/17 10:10:35;;;;;;;2.60;2.30;;;9.00;80.70;;;;;;5105159;28;20031;-43
2020/12/17 10:13:02;;;;;;;3.50;2.47;;;9.00;80.80;;;;;;5104745;28;20024;-43
2020/12/17 10:15:28;;;;;;;1.90;1.70;;;9.00;80.70;;;;;;5104584;28;20031;-43
2020/12/17 10:17:55;;;;;;;2.30;1.67;;;8.90;80.60;;;;;;5104720;28;20061;-43
2020/12/17 10:20:22;;;;;;;3.33;2.60;;;8.90;80.70;;;;;;5104689;28;20047;-44
2020/12/17 10:22:48;;;;;;;3.13;2.50;;;8.90;80.60;;;;;;5104286;28;20036;-43
2020/12/17 10:25:15;;;;;;;2.75;2.53;;;9.00;80.70;;;;;;5104389;28;20556;-43
2020/12/17 10:27:41;;;;;;;2.45;2.22;;;8.90;80.70;;;;;;5104726;28;20036;-44
2020/12/17 10:30:08;;;;;;;2.67;2.30;;;9.00;80.70;;;;;;5104472;28;20032;-44
2020/12/17 10:32:34;;;;;;;2.40;2.20;;;8.90;80.70;;;;;;5104553;28;20028;-43
2020/12/17 10:35:00;;;;;;;2.83;2.45;;;9.00;80.80;;;;;;5104164;28;20035;-43
2020/12/17 10:37:30;;;;;;;3.20;2.30;;;8.90;80.70;;;;;;5089271;28;20029;-43
2020/12/17 10:39:56;;;;;;;3.13;2.67;;;8.90;80.70;;;;;;5070137;28;20028;-43
2020/12/17 10:42:22;;;;;;;2.97;2.65;;;8.90;80.70;;;;;;5104243;28;20058;-43
2020/12/17 10:44:49;;;;;;;3.93;2.87;;;8.90;80.70;;;;;;5104117;28;20032;-43
2020/12/17 10:47:16;;;;;;;3.38;2.78;;;8.90;80.70;;;;;;5104327;28;20299;-44
2020/12/17 10:49:42;;;;;;;;;;;8.90;80.80;;;;;;5104156;28;20044;-44
2020/12/17 10:52:09;;;;;;;3.33;3.03;;;8.90;80.70;;;;;;5104326;28;20004;-43
2020/12/17 10:54:36;;;;;;;2.95;2.65;;;8.90;80.70;;;;;;5103644;28;20124;-43
2020/12/17 10:57:02;;;;;;;2.90;2.45;;;8.90;80.70;;;;;;5104104;28;20028;-43
2020/12/17 10:59:28;;;;;;;2.97;2.45;;;8.90;80.70;;;;;;5103840;28;20030;-44
2020/12/17 11:01:58;;;;;;;3.35;2.83;;;8.90;80.70;;;;;;5100644;28;20059;-44
2020/12/17 11:04:24;;;;;;;3.30;2.90;;;8.80;80.70;;;;;;5065470;28;20035;-44
2020/12/17 11:06:54;;;;;;;3.47;3.07;;;8.80;80.70;;;;;;5093831;28;20099;-43
2020/12/17 11:09:20;;;;;;;4.13;3.00;;;8.90;80.70;;;;;;5103696;28;20059;-44
2020/12/17 11:11:50;;;;;;;3.42;3.13;;;8.90;80.80;;;;;;5103736;28;20048;-43
2020/12/17 11:14:16;;;;;;;3.63;2.95;;;8.90;80.90;;;;;;5103366;28;20027;-44
2020/12/17 11:16:42;;;;;;;3.08;2.78;;;8.80;80.80;;;;;;5103673;28;20034;-43
2020/12/17 11:19:09;;;;;;;3.80;3.30;;;8.90;80.80;;;;;;5102799;28;20757;-43
2020/12/17 11:21:35;;;;;;;3.80;2.95;;;8.90;80.70;;;;;;5103716;28;20113;-43
2020/12/17 11:24:02;;;;;;;3.27;2.97;;;8.80;80.70;;;;;;5103263;28;20028;-43
2020/12/17 11:26:28;;;;;;;3.72;3.33;;;8.80;80.70;;;;;;5103419;28;20028;-44
2020/12/17 11:28:58;;;;;;;3.97;3.17;;;8.80;80.60;;;;;;5103378;28;20048;-43
2020/12/17 11:31:25;;;;;;;3.78;3.10;;;8.80;80.60;;;;;;5103243;28;20485;-43
2020/12/17 11:33:52;;;;;;;3.35;2.88;;;8.80;80.60;;;;;;5103521;28;20554;-44
2020/12/17 11:36:18;;;;;;;3.55;2.78;;;8.80;80.60;;;;;;5097516;28;20060;-43
2020/12/17 11:38:44;;;;;;;3.83;2.95;;;8.80;80.60;;;;;;5083069;28;20021;-44
2020/12/17 11:41:11;;;;;;;4.07;3.20;;;8.80;80.70;;;;;;5083085;28;20020;-43
2020/12/17 11:43:37;;;;;;;3.70;3.35;;;8.80;80.70;;;;;;5099351;28;20028;-43
2020/12/17 11:46:03;;;;;;;4.78;3.60;;;8.80;80.70;;;;;;5102916;28;20039;-43
2020/12/17 11:48:30;;;;;;;3.55;3.10;;;8.80;80.70;;;;;;5103168;28;20024;-43
2020/12/17 11:50:56;;;;;;;4.45;3.33;;;8.80;80.70;;;;;;5103019;28;20024;-43
2020/12/17 11:53:22;;;;;;;3.67;3.15;;;8.80;80.70;;;;;;5103015;28;20032;-43
2020/12/17 11:55:48;;;;;;;3.88;3.22;;;8.80;80.70;;;;;;5102825;28;20066;-43
2020/12/17 11:58:14;;;;;;;4.18;3.65;;;8.80;80.70;;;;;;5102675;28;20032;-44
2020/12/17 12:00:41;;;;;;;3.60;3.15;;;8.80;80.70;;;;;;5102921;28;20020;-43
2020/12/17 12:03:07;;;;;;;3.95;2.92;;;8.80;80.70;;;;;;5089289;28;20020;-44
2020/12/17 12:05:33;;;;;;;3.97;3.20;;;8.70;80.60;;;;;;5082780;28;20050;-44
2020/12/17 12:07:59;;;;;;;4.70;3.60;;;8.70;80.70;;;;;;5101944;28;20035;-43
2020/12/17 12:10:25;;;;;;;4.00;3.33;;;8.70;80.70;;;;;;5102705;28;20032;-44
2020/12/17 12:12:52;;;;;;;3.40;3.05;;;8.70;80.70;;;;;;5102820;28;20028;-43
2020/12/17 12:15:18;;;;;;;4.63;3.22;;;8.70;80.70;;;;;;5102483;28;20028;-43
2020/12/17 12:17:44;;;;;;;4.25;3.40;;;8.70;80.70;;;;;;5086609;28;20047;-43
2020/12/17 12:20:10;;;;;;;3.97;3.53;;;8.70;80.70;;;;;;5123109;28;20553;-43
2020/12/17 12:22:36;;;;;;;4.22;3.22;;;8.70;80.70;;;;;;5123247;28;20024;-45
2020/12/17 12:25:05;;;;;;;3.95;2.92;;;8.70;80.60;;;;;;5123023;28;20201;-44
2020/12/17 12:27:31;;;;;;;4.53;2.97;;;8.70;80.70;;;;;;5104498;28;20028;-43
2020/12/17 12:29:58;;;;;;;4.43;3.47;;;8.70;80.70;;;;;;5125369;28;20038;-44
2020/12/17 12:32:24;;;;;;;4.50;3.65;;;8.70;80.60;;;;;;5119604;28;20021;-44
2020/12/17 12:34:50;;;;;;;3.85;3.28;;;8.70;80.60;;;;;;5106966;28;20024;-43
2020/12/17 12:37:16;;;;;;;4.13;3.35;;;8.70;80.70;;;;;;5120096;28;20028;-44
2020/12/17 12:39:42;;;;;;;4.03;3.40;;;8.70;80.70;;;;;;5127017;28;20047;-43
2020/12/17 12:42:09;;;;;;;2.87;2.43;;;8.70;80.70;;;;;;5127065;28;20027;-43
2020/12/17 12:44:35;;;;;;;3.50;3.13;;;8.70;80.60;;;;;;5129526;27;20488;-44
2020/12/17 12:47:02;;;;;;;4.07;3.45;;;8.70;80.70;;;;;;5126844;28;20066;-43
2020/12/17 12:49:28;;;;;;;4.30;3.50;;;8.70;80.70;;;;;;5133294;27;20067;-43
2020/12/17 12:51:55;;;;;;;4.53;3.30;;;8.70;80.70;;;;;;5147635;27;20487;-43
2020/12/17 12:54:21;;;;;;;4.03;3.50;;;8.70;80.70;;;;;;5141846;27;20078;-44
2020/12/17 12:56:47;;;;;;;4.05;3.33;;;8.60;80.60;;;;;;5126680;27;20024;-44
2020/12/17 12:59:13;;;;;;;4.68;3.47;;;8.70;80.70;;;;;;5126553;28;20027;-43
2020/12/17 13:01:40;;;;;;;3.97;2.95;;;8.70;80.70;;;;;;5125390;28;20020;-43